Time,TemperatureF,DewpointF,PressureIn,WindDirection,WindDirectionDegrees,WindSpeedMPH,WindSpeedGustMPH,Humidity,HourlyPrecipIn,Conditions,Clouds,dailyrainin,SolarRadiationWatts/m^2,SoftwareType,DateUTC
2013-04-26 00:22:00,59.0,43.0,-100.00,WSW,239,0.0,5.0,55,0.00,,,0.00,0.000000,,2013-04-26 07:22:00,
2013-04-26 00:31:00,59.0,43.0,-100.00,WSW,239,0.0,5.0,55,0.00,,,0.00,0.000000,,2013-04-26 07:31:00,
2013-04-26 00:42:00,59.0,43.0,-100.00,WSW,239,0.0,5.0,55,0.00,,,0.00,0.000000,,2013-04-26 07:42:00,
2013-04-26 00:52:00,59.0,43.0,-100.00,WSW,239,0.0,5.0,55,0.00,,,0.00,0.000000,,2013-04-26 07:52:00,
2013-04-26 01:21:00,58.0,42.0,-100.00,NE,39,0.0,3.0,56,0.00,,,0.00,0.000000,,2013-04-26 08:21:00,
2013-04-26 01:31:00,58.0,42.0,-100.00,NE,39,0.0,3.0,56,0.00,,,0.00,0.000000,,2013-04-26 08:31:00,
2013-04-26 01:42:00,58.0,42.0,-100.00,NE,39,0.0,3.0,56,0.00,,,0.00,0.000000,,2013-04-26 08:42:00,
2013-04-26 01:51:00,58.0,42.0,-100.00,NE,39,0.0,3.0,56,0.00,,,0.00,0.000000,,2013-04-26 08:51:00,
2013-04-26 02:21:00,57.0,41.0,-100.00,SSE,156,0.0,0.0,56,0.00,,,0.00,0.000000,,2013-04-26 09:21:00,
2013-04-26 02:33:00,57.0,41.0,-100.00,SSE,156,0.0,0.0,56,0.00,,,0.00,0.000000,,2013-04-26 09:33:00,
2013-04-26 02:42:00,57.0,41.0,-100.00,SSE,156,0.0,0.0,56,0.00,,,0.00,0.000000,,2013-04-26 09:42:00,
2013-04-26 02:53:00,57.0,41.0,-100.00,SSE,156,0.0,0.0,56,0.00,,,0.00,0.000000,,2013-04-26 09:53:00,
2013-04-26 03:22:00,55.0,40.0,-100.00,NNW,346,1.0,4.0,56,0.00,,,0.00,0.000000,,2013-04-26 10:22:00,
2013-04-26 03:33:00,55.0,40.0,-100.00,NNW,346,1.0,4.0,56,0.00,,,0.00,0.000000,,2013-04-26 10:33:00,
2013-04-26 03:42:00,55.0,40.0,-100.00,NNW,346,1.0,4.0,56,0.00,,,0.00,0.000000,,2013-04-26 10:42:00,
2013-04-26 03:52:00,55.0,40.0,-100.00,NNW,346,1.0,4.0,56,0.00,,,0.00,0.000000,,2013-04-26 10:52:00,
2013-04-26 04:22:00,55.0,39.0,-100.00,North,10,7.0,9.0,55,0.00,,,0.00,0.000000,,2013-04-26 11:22:00,
2013-04-26 04:32:00,55.0,39.0,-100.00,North,10,7.0,9.0,55,0.00,,,0.00,0.000000,,2013-04-26 11:32:00,
2013-04-26 04:41:00,55.0,39.0,-100.00,North,10,7.0,9.0,55,0.00,,,0.00,0.000000,,2013-04-26 11:41:00,
2013-04-26 04:51:00,55.0,39.0,-100.00,North,10,7.0,9.0,55,0.00,,,0.00,0.000000,,2013-04-26 11:51:00,
2013-04-26 05:21:00,54.0,37.0,-100.00,NNE,15,6.0,9.0,53,0.00,,,0.00,0.000000,,2013-04-26 12:21:00,
2013-04-26 05:32:00,54.0,37.0,-100.00,NNE,15,6.0,9.0,53,0.00,,,0.00,0.000000,,2013-04-26 12:32:00,
2013-04-26 05:41:00,54.0,37.0,-100.00,NNE,15,6.0,9.0,53,0.00,,,0.00,0.000000,,2013-04-26 12:41:00,
2013-04-26 05:52:00,54.0,37.0,-100.00,NNE,15,6.0,9.0,53,0.00,,,0.00,0.000000,,2013-04-26 12:52:00,
2013-04-26 06:21:00,53.0,37.0,-100.00,NNE,15,5.0,10.0,54,0.00,,,0.00,0.000000,,2013-04-26 13:21:00,
2013-04-26 06:31:00,53.0,37.0,-100.00,NNE,15,5.0,10.0,54,0.00,,,0.00,0.000000,,2013-04-26 13:31:00,
2013-04-26 06:41:00,53.0,37.0,-100.00,NNE,15,5.0,10.0,54,0.00,,,0.00,0.000000,,2013-04-26 13:41:00,
2013-04-26 06:52:00,53.0,37.0,-100.00,NNE,15,5.0,10.0,54,0.00,,,0.00,0.000000,,2013-04-26 13:52:00,
2013-04-26 07:21:00,54.0,38.0,-100.00,NNE,13,6.0,10.0,54,0.00,,,0.00,14.000000,,2013-04-26 14:21:00,
2013-04-26 07:32:00,54.0,38.0,-100.00,NNE,13,6.0,10.0,54,0.00,,,0.00,14.000000,,2013-04-26 14:32:00,
2013-04-26 07:41:00,54.0,38.0,-100.00,NNE,13,6.0,10.0,54,0.00,,,0.00,14.000000,,2013-04-26 14:41:00,
2013-04-26 07:51:00,54.0,38.0,-100.00,NNE,13,6.0,10.0,54,0.00,,,0.00,14.000000,,2013-04-26 14:51:00,
2013-04-26 08:21:00,57.0,36.0,-100.00,NNE,12,0.0,11.0,45,0.00,,,0.00,101.000000,,2013-04-26 15:21:00,
2013-04-26 08:33:00,57.0,36.0,-100.00,NNE,12,0.0,11.0,45,0.00,,,0.00,101.000000,,2013-04-26 15:33:00,
2013-04-26 08:42:00,57.0,36.0,-100.00,NNE,12,0.0,11.0,45,0.00,,,0.00,101.000000,,2013-04-26 15:42:00,
2013-04-26 08:52:00,57.0,36.0,-100.00,NNE,12,0.0,11.0,45,0.00,,,0.00,101.000000,,2013-04-26 15:52:00,
2013-04-26 09:23:00,66.0,38.0,-100.00,NW,322,0.0,4.0,35,0.00,,,0.00,452.000000,,2013-04-26 16:23:00,
2013-04-26 09:33:00,66.0,38.0,-100.00,NW,322,0.0,4.0,35,0.00,,,0.00,452.000000,,2013-04-26 16:33:00,
2013-04-26 09:42:00,66.0,38.0,-100.00,NW,322,0.0,4.0,35,0.00,,,0.00,452.000000,,2013-04-26 16:42:00,
2013-04-26 09:52:00,66.0,38.0,-100.00,NW,322,0.0,4.0,35,0.00,,,0.00,452.000000,,2013-04-26 16:52:00,
2013-04-26 10:21:00,70.0,35.0,-100.00,SSE,158,2.0,8.0,28,0.00,,,0.00,681.000000,,2013-04-26 17:21:00,
2013-04-26 10:31:00,70.0,35.0,-100.00,SSE,158,2.0,8.0,28,0.00,,,0.00,681.000000,,2013-04-26 17:31:00,
2013-04-26 10:41:00,70.0,35.0,-100.00,SSE,158,2.0,8.0,28,0.00,,,0.00,681.000000,,2013-04-26 17:41:00,
2013-04-26 10:51:00,70.0,35.0,-100.00,SSE,158,2.0,8.0,28,0.00,,,0.00,681.000000,,2013-04-26 17:51:00,
2013-04-26 11:22:00,72.0,38.0,-100.00,South,189,8.0,12.0,29,0.00,,,0.00,872.000000,,2013-04-26 18:22:00,
2013-04-26 11:33:00,72.0,38.0,-100.00,South,189,8.0,12.0,29,0.00,,,0.00,872.000000,,2013-04-26 18:33:00,
2013-04-26 11:41:00,72.0,38.0,-100.00,South,189,8.0,12.0,29,0.00,,,0.00,872.000000,,2013-04-26 18:41:00,
2013-04-26 11:51:00,72.0,38.0,-100.00,South,189,8.0,12.0,29,0.00,,,0.00,872.000000,,2013-04-26 18:51:00,
2013-04-26 12:22:00,73.0,37.0,-100.00,South,185,10.0,14.0,27,0.00,,,0.00,1007.000000,,2013-04-26 19:22:00,
2013-04-26 12:31:00,73.0,37.0,-100.00,South,185,10.0,14.0,27,0.00,,,0.00,1007.000000,,2013-04-26 19:31:00,
2013-04-26 12:41:00,73.0,37.0,-100.00,South,185,10.0,14.0,27,0.00,,,0.00,1007.000000,,2013-04-26 19:41:00,
2013-04-26 12:52:00,73.0,37.0,-100.00,South,185,10.0,14.0,27,0.00,,,0.00,1007.000000,,2013-04-26 19:52:00,
2013-04-26 13:21:00,78.0,41.0,-100.00,SSE,166,16.0,22.0,27,0.00,,,0.00,1082.000000,,2013-04-26 20:21:00,
2013-04-26 13:32:00,78.0,41.0,-100.00,SSE,166,16.0,22.0,27,0.00,,,0.00,1082.000000,,2013-04-26 20:32:00,
2013-04-26 13:42:00,78.0,41.0,-100.00,SSE,166,16.0,22.0,27,0.00,,,0.00,1082.000000,,2013-04-26 20:42:00,
2013-04-26 13:51:00,78.0,41.0,-100.00,SSE,166,16.0,22.0,27,0.00,,,0.00,1082.000000,,2013-04-26 20:51:00,
2013-04-26 14:21:00,80.0,28.0,-100.00,South,175,15.0,22.0,15,0.00,,,0.00,1079.000000,,2013-04-26 21:21:00,
2013-04-26 14:32:00,80.0,28.0,-100.00,South,175,15.0,22.0,15,0.00,,,0.00,1079.000000,,2013-04-26 21:32:00,
2013-04-26 14:42:00,80.0,28.0,-100.00,South,175,15.0,22.0,15,0.00,,,0.00,1079.000000,,2013-04-26 21:42:00,
2013-04-26 14:52:00,80.0,28.0,-100.00,South,175,15.0,22.0,15,0.00,,,0.00,1079.000000,,2013-04-26 21:52:00,
2013-04-26 15:22:00,84.0,28.0,-100.00,SSE,164,13.0,20.0,13,0.00,,,0.00,1008.000000,,2013-04-26 22:22:00,
2013-04-26 15:33:00,84.0,28.0,-100.00,SSE,164,13.0,20.0,13,0.00,,,0.00,1008.000000,,2013-04-26 22:33:00,
2013-04-26 15:42:00,84.0,28.0,-100.00,SSE,164,13.0,20.0,13,0.00,,,0.00,1008.000000,,2013-04-26 22:42:00,
2013-04-26 15:52:00,84.0,28.0,-100.00,SSE,164,13.0,20.0,13,0.00,,,0.00,1008.000000,,2013-04-26 22:52:00,
2013-04-26 16:21:00,83.0,32.0,-100.00,NW,315,24.0,32.0,16,0.00,,,0.00,860.000000,,2013-04-26 23:21:00,
2013-04-26 16:32:00,83.0,32.0,-100.00,NW,315,24.0,32.0,16,0.00,,,0.00,860.000000,,2013-04-26 23:32:00,
2013-04-26 16:42:00,83.0,32.0,-100.00,NW,315,24.0,32.0,16,0.00,,,0.00,860.000000,,2013-04-26 23:42:00,
2013-04-26 16:52:00,83.0,32.0,-100.00,NW,315,24.0,32.0,16,0.00,,,0.00,860.000000,,2013-04-26 23:52:00,
2013-04-26 17:21:00,82.0,38.0,-100.00,NW,304,25.0,34.0,21,0.00,,,0.00,714.000000,,2013-04-27 00:21:00,
2013-04-26 17:32:00,82.0,38.0,-100.00,NW,304,25.0,34.0,21,0.00,,,0.00,714.000000,,2013-04-27 00:32:00,
2013-04-26 17:41:00,82.0,38.0,-100.00,NW,304,25.0,34.0,21,0.00,,,0.00,714.000000,,2013-04-27 00:41:00,
2013-04-26 17:51:00,82.0,38.0,-100.00,NW,304,25.0,34.0,21,0.00,,,0.00,714.000000,,2013-04-27 00:51:00,
2013-04-26 18:21:00,80.0,39.0,-100.00,NW,320,25.0,36.0,23,0.00,,,0.00,445.000000,,2013-04-27 01:21:00,
2013-04-26 18:32:00,80.0,39.0,-100.00,NW,320,25.0,36.0,23,0.00,,,0.00,445.000000,,2013-04-27 01:32:00,
2013-04-26 18:41:00,80.0,39.0,-100.00,NW,320,25.0,36.0,23,0.00,,,0.00,445.000000,,2013-04-27 01:41:00,
2013-04-26 18:52:00,80.0,39.0,-100.00,NW,320,25.0,36.0,23,0.00,,,0.00,445.000000,,2013-04-27 01:52:00,
2013-04-26 19:22:00,77.0,35.0,-100.00,NW,316,13.0,27.0,22,0.00,,,0.00,199.000000,,2013-04-27 02:22:00,
2013-04-26 19:32:00,77.0,35.0,-100.00,NW,316,13.0,27.0,22,0.00,,,0.00,199.000000,,2013-04-27 02:32:00,
2013-04-26 19:42:00,77.0,35.0,-100.00,NW,316,13.0,27.0,22,0.00,,,0.00,199.000000,,2013-04-27 02:42:00,
2013-04-26 19:51:00,77.0,35.0,-100.00,NW,316,13.0,27.0,22,0.00,,,0.00,199.000000,,2013-04-27 02:51:00,
2013-04-26 20:22:00,71.0,41.0,-100.00,SE,145,10.0,16.0,34,0.00,,,0.00,18.000000,,2013-04-27 03:22:00,
2013-04-26 20:32:00,71.0,41.0,-100.00,SE,145,10.0,16.0,34,0.00,,,0.00,18.000000,,2013-04-27 03:32:00,
2013-04-26 20:42:00,71.0,41.0,-100.00,SE,145,10.0,16.0,34,0.00,,,0.00,18.000000,,2013-04-27 03:42:00,
2013-04-26 20:52:00,71.0,41.0,-100.00,SE,145,10.0,16.0,34,0.00,,,0.00,18.000000,,2013-04-27 03:52:00,
2013-04-26 21:22:00,70.0,45.0,-100.00,SSE,163,12.0,15.0,40,0.00,,,0.00,0.000000,,2013-04-27 04:22:00,
2013-04-26 21:33:00,70.0,45.0,-100.00,SSE,163,12.0,15.0,40,0.00,,,0.00,0.000000,,2013-04-27 04:33:00,
2013-04-26 21:43:00,70.0,45.0,-100.00,SSE,163,12.0,15.0,40,0.00,,,0.00,0.000000,,2013-04-27 04:43:00,
2013-04-26 21:52:00,70.0,45.0,-100.00,SSE,163,12.0,15.0,40,0.00,,,0.00,0.000000,,2013-04-27 04:52:00,
2013-04-26 22:22:00,67.0,46.0,-100.00,South,172,11.0,18.0,47,0.00,,,0.00,0.000000,,2013-04-27 05:22:00,
2013-04-26 22:32:00,67.0,46.0,-100.00,South,172,11.0,18.0,47,0.00,,,0.00,0.000000,,2013-04-27 05:32:00,
2013-04-26 22:42:00,67.0,46.0,-100.00,South,172,11.0,18.0,47,0.00,,,0.00,0.000000,,2013-04-27 05:42:00,
2013-04-26 22:51:00,67.0,46.0,-100.00,South,172,11.0,18.0,47,0.00,,,0.00,0.000000,,2013-04-27 05:51:00,
2013-04-26 23:22:00,65.0,46.0,-100.00,South,187,1.0,14.0,50,0.00,,,0.00,0.000000,,2013-04-27 06:22:00,
2013-04-26 23:32:00,65.0,46.0,-100.00,South,187,1.0,14.0,50,0.00,,,0.00,0.000000,,2013-04-27 06:32:00,
2013-04-26 23:41:00,65.0,46.0,-100.00,South,187,1.0,14.0,50,0.00,,,0.00,0.000000,,2013-04-27 06:41:00,
2013-04-26 23:51:00,65.0,46.0,-100.00,South,187,1.0,14.0,50,0.00,,,0.00,0.000000,,2013-04-27 06:51:00,